Time;durP1;ratioP1;P1;durP2;ratioP2;P2;SDS_P1;SDS_P2;PMS_P1;PMS_P2;Temp;Humidity;BMP_temperature;BMP_pressure;BME280_temperature;BME280_humidity;BME280_pressure;Samples;Min_cycle;Max_cycle;Signal;HPM_P1;HPM_P2
2021/04/04 00:02:35;;;;;;;16.03;9.53;;;-1.00;99.90;;;-2.97;100.00;101160.97;4973380;28;99419;-61
2021/04/04 00:05:58;;;;;;;10.80;9.27;;;-1.00;99.90;;;-3.06;100.00;101156.03;4973468;28;98075;-61
2021/04/04 00:09:10;;;;;;;10.77;8.80;;;-1.10;99.90;;;-3.15;100.00;101153.72;4991522;28;99825;-62
2021/04/04 00:12:34;;;;;;;12.83;9.00;;;-1.20;99.90;;;-3.16;100.00;101152.00;4972352;28;101000;-61
2021/04/04 00:15:52;;;;;;;15.80;9.33;;;-1.20;99.90;;;-3.16;100.00;101156.41;4968046;28;99738;-62
2021/04/04 00:19:04;;;;;;;10.17;8.60;;;-1.30;99.90;;;-3.19;100.00;101153.88;4974593;28;100197;-62
2021/04/04 00:22:15;;;;;;;11.37;8.60;;;-1.30;99.90;;;-3.18;100.00;101152.97;4969453;28;100073;-61
2021/04/04 00:25:29;;;;;;;11.03;8.30;;;-1.30;99.90;;;-2.94;100.00;101158.25;4955657;28;100897;-61
2021/04/04 00:28:40;;;;;;;12.33;8.80;;;-1.40;99.90;;;-3.05;100.00;101152.50;4971236;28;99597;-61
2021/04/04 00:32:04;;;;;;;10.80;7.83;;;-1.40;99.90;;;-3.02;100.00;101152.41;4973807;28;99849;-62
2021/04/04 00:35:15;;;;;;;10.73;8.13;;;-1.40;99.90;;;-2.86;100.00;101152.75;4981699;28;99594;-62
2021/04/04 00:38:27;;;;;;;11.93;9.17;;;-1.30;99.90;;;-3.09;100.00;101153.50;4978392;28;98536;-62
2021/04/04 00:41:45;;;;;;;10.10;8.27;;;-1.30;99.90;;;-3.21;100.00;101160.94;4968287;28;99923;-62
2021/04/04 00:48:41;;;;;;;16.63;8.53;;;-1.40;99.90;;;-3.15;100.00;101158.09;4967729;28;99749;-61
2021/04/04 00:51:53;;;;;;;10.50;8.00;;;-1.40;99.90;;;-3.09;100.00;101152.69;4967676;28;100092;-63
2021/04/04 00:55:06;;;;;;;10.43;8.50;;;-1.40;99.90;;;-3.11;100.00;101152.72;4949935;28;99808;-62
2021/04/04 00:58:19;;;;;;;9.40;7.50;;;-1.40;99.90;;;-3.22;100.00;101162.69;4970930;28;99876;-62
2021/04/04 01:04:59;;;;;;;11.93;8.60;;;-1.50;99.90;;;-3.27;100.00;101156.75;4953001;28;99900;-61
2021/04/04 01:08:10;;;;;;;10.37;8.27;;;-1.50;99.90;;;-3.23;100.00;101160.13;4966868;28;100036;-62
2021/04/04 01:11:38;;;;;;;12.30;8.57;;;-1.60;99.90;;;-3.38;100.00;101154.47;4966375;28;100536;-62
2021/04/04 01:15:02;;;;;;;13.93;9.40;;;-1.60;99.90;;;-3.57;100.00;101155.09;4980264;28;100318;-62
2021/04/04 01:18:20;;;;;;;12.63;9.17;;;-1.60;99.90;;;-3.40;100.00;101148.44;4967681;28;100703;-62
2021/04/04 01:21:35;;;;;;;14.67;9.30;;;-1.70;99.90;;;-3.44;100.00;101151.19;4985914;28;100095;-62
2021/04/04 01:25:14;;;;;;;11.87;8.83;;;-1.70;99.90;;;-3.39;100.00;101154.53;4986504;28;99854;-62
2021/04/04 01:28:30;;;;;;;12.30;9.00;;;-1.70;99.90;;;-3.52;100.00;101156.69;4943869;28;100948;-62
2021/04/04 01:31:44;;;;;;;10.30;8.53;;;-1.80;99.90;;;-3.55;100.00;101148.91;4964940;28;100652;-60
2021/04/04 01:38:48;;;;;;;14.57;8.83;;;-1.70;99.90;;;-3.62;100.00;101152.63;4957938;28;100460;-63
2021/04/04 01:42:00;;;;;;;9.47;6.80;;;-1.80;99.90;;;-3.48;100.00;101157.44;4965707;28;100685;-61
2021/04/04 01:45:15;;;;;;;8.63;6.87;;;-1.80;99.90;;;-3.78;100.00;101152.25;4965073;28;100900;-61
2021/04/04 01:48:47;;;;;;;9.10;6.53;;;-1.80;99.90;;;-3.83;100.00;101150.69;4964845;28;100052;-62
2021/04/04 01:55:45;;;;;;;10.27;7.77;;;-1.90;99.90;;;-3.89;100.00;101158.69;4960848;28;101454;-62
2021/04/04 01:59:04;;;;;;;12.67;8.73;;;-2.00;99.90;;;-3.85;100.00;101163.81;4965271;28;100144;-62
2021/04/04 02:02:17;;;;;;;12.17;8.70;;;-2.00;99.90;;;-3.46;100.00;101155.63;4965291;28;99853;-63
2021/04/04 02:05:31;;;;;;;10.80;6.90;;;-2.00;99.90;;;-3.11;100.00;101149.25;4965861;28;99977;-63
2021/04/04 02:08:54;;;;;;;12.80;9.03;;;-2.00;99.90;;;-3.69;100.00;101153.72;4982265;28;100505;-63
2021/04/04 02:12:06;;;;;;;14.63;10.13;;;-2.00;99.90;;;-3.78;100.00;101144.41;4985239;28;100234;-61
2021/04/04 02:15:20;;;;;;;14.30;10.53;;;-2.00;99.90;;;-3.81;100.00;101141.88;4985152;28;99881;-62
2021/04/04 02:18:34;;;;;;;15.50;11.20;;;-2.00;99.90;;;-3.87;100.00;101138.59;4984918;28;100193;-62
2021/04/04 02:21:46;;;;;;;14.47;11.13;;;-2.00;99.90;;;-3.88;100.00;101152.56;4983791;28;100863;-62
2021/04/04 02:24:58;;;;;;;13.50;9.97;;;-2.00;99.90;;;-4.03;100.00;101143.41;4984853;28;100695;-63
2021/04/04 02:28:21;;;;;;;14.93;10.00;;;-2.10;99.90;;;-4.12;100.00;101141.94;4953423;28;100737;-63
2021/04/04 02:31:33;;;;;;;15.70;10.47;;;-2.10;99.90;;;-4.27;100.00;101137.16;4964276;28;100046;-62
2021/04/04 02:35:08;;;;;;;15.60;11.23;;;-2.10;99.90;;;-4.13;100.00;101137.63;4964386;28;100037;-60
2021/04/04 02:38:46;;;;;;;12.87;10.77;;;-2.20;99.90;;;-4.22;100.00;101135.28;4864211;28;100045;-60
2021/04/04 02:41:58;;;;;;;12.40;9.77;;;-2.20;99.90;;;-4.30;100.00;101136.38;4964037;28;100022;-60
2021/04/04 02:45:11;;;;;;;11.43;9.30;;;-2.30;99.90;;;-4.31;100.00;101129.44;4967647;28;100073;-62
2021/04/04 02:48:25;;;;;;;11.63;8.97;;;-2.30;99.90;;;-4.24;100.00;101131.00;4965359;28;101011;-60
2021/04/04 02:51:44;;;;;;;8.30;7.27;;;-2.40;99.90;;;-4.10;100.00;101139.28;4984643;28;100799;-61
2021/04/04 02:55:00;;;;;;;11.23;8.60;;;-2.40;99.90;;;-4.00;100.00;101143.34;4986291;28;99959;-62
2021/04/04 02:58:13;;;;;;;12.90;8.47;;;-2.40;99.90;;;-3.94;100.00;101132.69;4985843;28;99923;-61
2021/04/04 03:01:26;;;;;;;12.20;8.57;;;-2.40;99.90;;;-3.94;100.00;101140.53;4972114;28;100887;-61
2021/04/04 03:04:38;;;;;;;11.53;8.27;;;-2.30;99.90;;;-4.01;100.00;101139.00;4966146;28;100169;-62
2021/04/04 03:07:53;;;;;;;14.33;9.90;;;-2.30;99.90;;;-4.13;100.00;101141.97;4966696;28;100178;-60
2021/04/04 03:11:05;;;;;;;15.93;10.70;;;-2.30;99.90;;;-4.21;100.00;101136.13;4969429;28;99880;-62
2021/04/04 03:14:19;;;;;;;13.47;10.53;;;-2.30;99.90;;;-4.29;100.00;101132.88;4967509;28;100774;-60
2021/04/04 03:17:33;;;;;;;17.43;11.90;;;-2.30;99.90;;;-4.37;100.00;101135.72;4967785;28;100581;-61
2021/04/04 03:20:51;;;;;;;15.13;11.70;;;-2.30;99.90;;;-4.46;100.00;101131.59;4976653;28;99844;-61
2021/04/04 03:24:04;;;;;;;17.87;12.03;;;-2.40;99.90;;;-4.50;100.00;101124.75;4989972;28;99862;-59
2021/04/04 03:27:17;;;;;;;19.00;13.60;;;-2.40;99.90;;;-4.59;100.00;101114.56;4987534;28;100630;-59
2021/04/04 03:35:02;;;;;;;17.57;13.27;;;-2.60;99.90;;;-4.61;100.00;101105.91;4934426;28;100124;-61
2021/04/04 03:38:30;;;;;;;17.83;13.20;;;-2.70;99.90;;;-4.61;100.00;101110.28;4986625;28;100210;-61
2021/04/04 03:45:24;;;;;;;17.80;13.57;;;-2.70;99.90;;;-4.56;100.00;101106.63;4866022;28;100496;-60
2021/04/04 03:48:56;;;;;;;15.70;13.20;;;-2.70;99.90;;;-4.41;100.00;101100.13;4962976;28;100230;-61
2021/04/04 03:52:14;;;;;;;15.03;12.40;;;-2.70;99.90;;;-4.56;100.00;101106.63;4967179;28;100372;-61
2021/04/04 04:10:54;;;;;;;14.53;11.23;;;-2.80;99.90;;;-4.76;100.00;101103.72;4903176;28;100022;-61
2021/04/04 04:14:31;;;;;;;13.20;10.37;;;-2.80;99.90;;;-4.86;100.00;101097.91;4969786;28;100167;-61
2021/04/04 04:18:13;;;;;;;13.90;10.33;;;-2.80;99.90;;;-4.86;100.00;101089.19;4928279;28;99952;-62
2021/04/04 04:21:25;;;;;;;18.07;13.13;;;-2.80;99.90;;;-4.97;100.00;101096.47;4867754;28;100163;-61
2021/04/04 04:24:39;;;;;;;19.57;13.50;;;-2.90;99.90;;;-5.04;100.00;101090.53;4868409;28;100898;-62
2021/04/04 04:35:10;;;;;;;14.30;11.47;;;-3.00;99.90;;;-4.87;100.00;101090.09;4884001;28;100664;-61
2021/04/04 04:37:41;;;;;;;13.83;12.10;;;-3.00;99.90;;;-4.79;100.00;101081.16;4884287;28;101647;-62
2021/04/04 04:40:11;;;;;;;16.37;13.40;;;-3.00;99.90;;;-5.00;100.00;101083.50;4958504;28;100880;-62
2021/04/04 04:42:42;;;;;;;17.43;14.13;;;-3.00;99.90;;;-5.10;100.00;101088.09;4949078;28;99880;-61
2021/04/04 04:45:16;;;;;;;15.73;13.03;;;-3.00;99.90;;;-4.91;100.00;101098.91;4967121;28;100167;-62
2021/04/04 04:47:43;;;;;;;16.57;12.93;;;-3.00;99.90;;;-4.69;100.00;101089.56;4966086;28;100724;-62
2021/04/04 04:50:13;;;;;;;14.70;12.23;;;-3.00;99.90;;;-4.82;100.00;101085.63;4947770;28;101451;-62
2021/04/04 04:52:40;;;;;;;18.00;12.73;;;-3.00;99.90;;;-4.67;100.00;101084.31;4968126;28;100418;-61
2021/04/04 04:55:08;;;;;;;15.63;13.23;;;-2.90;99.90;;;-4.41;100.00;101085.28;4987812;28;100072;-59
2021/04/04 04:57:39;;;;;;;19.47;13.83;;;-2.90;99.90;;;-4.39;100.00;101086.13;4986847;28;100603;-61
2021/04/04 05:00:08;;;;;;;17.10;14.20;;;-2.80;99.90;;;-4.46;100.00;101081.97;4986886;28;100227;-62
2021/04/04 05:02:36;;;;;;;13.87;12.10;;;-2.80;99.90;;;-4.37;100.00;101078.22;4986469;28;100223;-62
2021/04/04 05:05:03;;;;;;;15.90;11.77;;;-2.70;99.90;;;-4.38;100.00;101084.34;4988189;28;99969;-61
2021/04/04 05:07:33;;;;;;;10.57;9.13;;;-2.60;99.90;;;-4.13;100.00;101087.97;4986165;28;101221;-62
2021/04/04 05:10:02;;;;;;;11.23;10.13;;;-2.50;99.90;;;-3.70;100.00;101082.25;4986433;28;100173;-60
2021/04/04 05:12:31;;;;;;;10.50;8.23;;;-2.40;99.90;;;-3.93;100.00;101076.88;4986055;28;99779;-62
2021/04/04 05:15:01;;;;;;;9.67;8.00;;;-2.30;99.90;;;-3.63;100.00;101085.53;4986828;28;100438;-61
2021/04/04 05:17:32;;;;;;;9.43;8.27;;;-2.20;99.90;;;-3.40;100.00;101090.00;4985921;28;101717;-61
2021/04/04 05:19:59;;;;;;;11.03;7.97;;;-2.00;99.90;;;-3.34;100.00;101085.41;4988187;28;100259;-62
2021/04/04 05:22:26;;;;;;;9.87;7.63;;;-1.90;99.90;;;-3.50;100.00;101086.84;4986387;28;99985;-63
2021/04/04 05:24:56;;;;;;;8.33;6.57;;;-1.70;99.90;;;-3.44;100.00;101088.41;4988258;28;99960;-63
2021/04/04 05:27:22;;;;;;;8.20;6.50;;;-1.70;99.90;;;-3.24;100.00;101096.47;4972085;28;100165;-63
2021/04/04 05:29:49;;;;;;;8.43;6.27;;;-1.60;99.90;;;-2.95;100.00;101090.22;4983044;27;100820;-62
2021/04/04 05:32:16;;;;;;;9.23;6.40;;;-1.50;99.90;;;-2.95;100.00;101091.06;4987608;28;100092;-62
2021/04/04 05:34:43;;;;;;;8.37;6.53;;;-1.40;99.90;;;-2.50;100.00;101090.34;4985900;28;100094;-62
2021/04/04 05:37:10;;;;;;;8.97;6.60;;;-1.30;99.90;;;-2.57;100.00;101088.84;4986222;28;100118;-64
2021/04/04 05:39:38;;;;;;;9.00;6.03;;;-1.10;99.90;;;-2.35;100.00;101088.94;4985221;28;100376;-64
2021/04/04 05:42:14;;;;;;;7.23;5.30;;;-0.90;99.90;;;-2.59;100.00;101088.03;4985427;28;100210;-64
2021/04/04 05:44:46;;;;;;;9.37;5.97;;;-0.70;99.90;;;-1.88;100.00;101087.13;4972540;28;100252;-64
2021/04/04 05:47:19;;;;;;;6.10;5.50;;;-0.60;99.90;;;-1.64;100.00;101085.28;4979359;28;100388;-64
2021/04/04 05:50:03;;;;;;;7.40;5.77;;;-0.40;99.90;;;-1.48;100.00;101086.38;4950149;28;100805;-63
2021/04/04 05:52:46;;;;;;;7.17;5.33;;;-0.10;99.90;;;-1.47;100.00;101091.56;4972744;28;99934;-63
2021/04/04 05:55:30;;;;;;;6.87;5.40;;;0.10;99.90;;;-1.17;100.00;101101.72;4968342;27;100009;-63
2021/04/04 05:58:03;;;;;;;5.97;4.70;;;0.30;99.90;;;-1.74;100.00;101097.06;4984090;28;100094;-62
2021/04/04 06:00:34;;;;;;;6.83;5.60;;;0.50;99.90;;;-1.66;100.00;101100.25;4975774;28;99675;-62
2021/04/04 06:03:54;;;;;;;8.07;5.43;;;0.60;99.90;;;-0.55;100.00;101101.66;4991020;28;98347;-63
2021/04/04 06:06:53;;;;;;;6.37;5.77;;;0.80;99.90;;;-0.23;100.00;101097.56;4994513;28;97983;-63
2021/04/04 06:09:39;;;;;;;5.47;4.93;;;1.00;99.90;;;-0.02;100.00;101101.00;4994818;28;99287;-64
2021/04/04 06:12:18;;;;;;;8.20;5.53;;;1.30;99.90;;;-0.09;100.00;101091.66;4986838;28;97297;-63
2021/04/04 06:15:04;;;;;;;6.97;5.67;;;1.60;99.90;;;-0.11;100.00;101094.38;4988445;28;98485;-64
2021/04/04 06:17:37;;;;;;;7.67;6.03;;;1.90;99.90;;;0.09;100.00;101093.47;4989882;28;99119;-63
2021/04/04 06:20:14;;;;;;;8.33;6.13;;;2.00;99.90;;;0.23;100.00;101096.28;4988603;28;99940;-62
2021/04/04 06:22:51;;;;;;;7.43;6.17;;;2.20;99.90;;;0.58;100.00;101094.59;4975208;28;99727;-63
2021/04/04 06:25:30;;;;;;;6.57;5.97;;;2.40;99.90;;;0.94;100.00;101091.91;4987338;28;99736;-63
2021/04/04 06:28:08;;;;;;;6.60;5.50;;;2.70;99.90;;;1.09;100.00;101095.56;4982620;28;100044;-62
2021/04/04 06:30:50;;;;;;;7.43;5.70;;;2.90;99.90;;;1.11;100.00;101100.75;4985147;28;99921;-63
2021/04/04 06:33:27;;;;;;;8.60;5.63;;;3.20;99.90;;;1.14;100.00;101098.78;4979544;28;99401;-62
2021/04/04 06:36:16;;;;;;;7.23;5.33;;;3.50;99.90;;;1.15;100.00;101102.28;4965687;28;99924;-62
2021/04/04 06:39:22;;;;;;;6.43;5.13;;;3.80;99.90;;;1.61;100.00;101096.31;4982336;28;99907;-62
2021/04/04 06:42:06;;;;;;;6.40;5.60;;;4.00;99.90;;;1.73;100.00;101086.91;4974350;28;99839;-63
2021/04/04 06:44:56;;;;;;;6.07;5.40;;;4.30;99.90;;;2.00;100.00;101084.53;4981896;28;100065;-62
2021/04/04 06:47:34;;;;;;;8.27;5.73;;;4.60;99.90;;;2.19;100.00;101079.94;4980456;28;99838;-61
2021/04/04 06:50:20;;;;;;;6.57;5.87;;;4.80;99.90;;;2.60;100.00;101076.75;4977323;28;100006;-63
2021/04/04 06:53:01;;;;;;;6.27;5.67;;;5.00;99.90;;;2.46;100.00;101074.91;4952634;28;100205;-62
2021/04/04 06:55:43;;;;;;;8.07;5.17;;;5.20;99.90;;;2.44;100.00;101079.44;4973786;28;100074;-61
2021/04/04 06:58:30;;;;;;;7.67;5.60;;;5.50;99.90;;;2.74;100.00;101077.66;4975100;28;99561;-60
2021/04/04 07:01:11;;;;;;;7.50;5.60;;;5.80;99.90;;;2.84;100.00;101086.72;4971985;28;97741;-61
2021/04/04 07:03:47;;;;;;;8.40;6.23;;;6.10;99.90;;;2.94;100.00;101071.22;4981617;28;92872;-61
2021/04/04 07:06:55;;;;;;;8.30;5.60;;;6.30;99.90;;;3.00;100.00;101068.19;4976013;28;96403;-61
2021/04/04 07:09:46;;;;;;;7.53;5.77;;;6.50;99.90;;;3.14;100.00;101060.28;4986594;28;96967;-62
2021/04/04 07:12:37;;;;;;;7.50;5.33;;;6.60;98.70;;;3.71;100.00;101060.31;4982318;28;93296;-62
2021/04/04 07:15:21;;;;;;;8.37;5.57;;;6.70;99.40;;;3.53;100.00;101061.47;4995296;28;91095;-60
2021/04/04 07:18:05;;;;;;;5.87;5.27;;;7.00;99.30;;;4.09;100.00;101049.94;5005689;28;77690;-61
2021/04/04 07:20:49;;;;;;;6.77;5.90;;;7.30;98.30;;;4.10;100.00;101056.09;4989962;28;89211;-62
2021/04/04 07:23:49;;;;;;;5.80;4.67;;;7.60;96.20;;;4.15;100.00;101054.00;5000366;28;96995;-61
2021/04/04 07:26:42;;;;;;;7.60;5.20;;;7.90;94.00;;;3.96;100.00;101057.81;5011804;28;86402;-61
2021/04/04 07:29:27;;;;;;;7.60;5.47;;;8.10;93.40;;;4.51;100.00;101045.47;5009909;28;82309;-61
2021/04/04 07:32:05;;;;;;;6.27;4.60;;;8.20;92.60;;;4.73;100.00;101059.00;5033179;28;65047;-62
2021/04/04 07:34:43;;;;;;;7.77;4.40;;;8.40;91.70;;;4.70;100.00;101060.03;5019256;28;72765;-61
2021/04/04 07:37:31;;;;;;;4.70;4.20;;;8.60;89.00;;;4.39;100.00;101055.06;5013887;28;82867;-62
2021/04/04 07:40:09;;;;;;;7.93;5.03;;;8.80;85.90;;;4.70;100.00;101045.94;5003845;28;93710;-61
2021/04/04 07:42:52;;;;;;;7.87;4.77;;;9.00;80.80;;;4.83;100.00;101056.56;5020681;28;79339;-62
2021/04/04 07:45:26;;;;;;;5.77;4.90;;;9.00;82.50;;;5.23;100.00;101055.56;5026326;28;77941;-63
2021/04/04 07:48:11;;;;;;;5.13;4.07;;;9.30;81.50;;;5.53;100.00;101043.81;5018588;28;74529;-62
2021/04/04 07:50:47;;;;;;;6.03;4.70;;;9.50;81.00;;;5.40;100.00;101055.28;4987609;28;89672;-62
2021/04/04 07:53:25;;;;;;;6.43;4.80;;;9.70;75.20;;;5.21;100.00;101051.31;5003361;28;87459;-63
2021/04/04 07:56:07;;;;;;;6.47;4.70;;;9.90;73.00;;;5.40;100.00;101054.41;5012326;28;95926;-61
2021/04/04 07:58:39;;;;;;;5.63;5.03;;;10.00;70.70;;;5.66;100.00;101044.63;4994884;28;92819;-62
2021/04/04 08:01:11;;;;;;;4.57;3.73;;;10.10;69.60;;;5.64;100.00;101044.75;5019526;28;83536;-62
2021/04/04 08:03:42;;;;;;;5.27;3.97;;;10.10;68.50;;;6.12;100.00;101042.22;5024085;28;66049;-62
2021/04/04 08:06:11;;;;;;;7.17;4.13;;;10.20;69.80;;;5.91;100.00;101041.13;5028591;28;67077;-63
2021/04/04 08:08:42;;;;;;;5.10;4.50;;;10.30;67.30;;;5.93;100.00;101048.03;5019894;28;64449;-62
2021/04/04 08:11:23;;;;;;;5.50;4.20;;;10.40;64.50;;;5.88;100.00;101041.31;5022254;28;73129;-62
2021/04/04 08:14:01;;;;;;;7.93;3.90;;;10.40;62.90;;;6.17;100.00;101041.91;5021420;28;67307;-62
2021/04/04 08:16:39;;;;;;;6.53;4.47;;;10.40;63.30;;;6.34;100.00;101037.03;5026279;28;71636;-62
2021/04/04 08:19:05;;;;;;;5.40;4.20;;;10.40;63.00;;;6.59;100.00;101035.22;5031615;28;67416;-62
2021/04/04 08:21:36;;;;;;;5.33;4.13;;;10.50;62.30;;;6.54;100.00;101034.72;5025391;28;82297;-62
2021/04/04 08:24:10;;;;;;;5.17;4.30;;;10.60;61.60;;;6.43;100.00;101028.38;5022950;28;74841;-61
2021/04/04 08:26:48;;;;;;;5.03;4.03;;;10.70;60.90;;;6.22;100.00;101024.63;5025366;28;72870;-60
2021/04/04 08:29:20;;;;;;;5.17;3.37;;;10.70;60.10;;;6.78;100.00;101019.59;5017570;28;80861;-61
2021/04/04 08:32:00;;;;;;;5.07;3.50;;;10.80;60.20;;;6.44;100.00;101015.91;5026472;28;75389;-62
2021/04/04 08:34:34;;;;;;;5.13;2.43;;;11.00;58.30;;;6.76;100.00;101013.53;5001236;28;80233;-61
2021/04/04 08:37:07;;;;;;;4.90;2.97;;;11.00;56.90;;;6.49;100.00;101014.63;5014114;28;73052;-62
2021/04/04 08:39:36;;;;;;;5.33;2.80;;;11.00;55.10;;;6.85;100.00;101013.66;5023161;28;91465;-62
2021/04/04 08:42:06;;;;;;;3.20;2.90;;;11.00;55.70;;;6.58;100.00;101006.91;5024013;28;69210;-62
2021/04/04 08:45:14;;;;;;;5.17;2.90;;;11.00;55.60;;;6.89;100.00;101014.28;5033177;28;60256;-62
2021/04/04 08:48:26;;;;;;;3.60;2.63;;;11.00;55.80;;;6.97;100.00;101014.53;5014223;28;66671;-61
2021/04/04 08:51:56;;;;;;;4.97;2.60;;;11.00;54.20;;;6.80;100.00;101012.31;5025406;28;64471;-62
2021/04/04 08:58:55;;;;;;;3.73;2.60;;;11.10;53.80;;;7.21;100.00;101010.00;5030730;28;58363;-60
2021/04/04 09:02:11;;;;;;;3.47;2.27;;;11.20;53.90;;;7.38;100.00;101014.00;5017105;28;78050;-62
2021/04/04 09:05:30;;;;;;;5.40;2.90;;;11.50;54.50;;;7.78;100.00;101014.38;5017134;27;78612;-60
2021/04/04 09:08:42;;;;;;;4.83;2.50;;;11.90;54.10;;;6.56;100.00;101007.03;5010550;28;73057;-61
2021/04/04 09:11:56;;;;;;;3.73;2.70;;;12.20;53.20;;;7.38;100.00;101006.03;5024673;28;69349;-61
2021/04/04 09:15:20;;;;;;;3.53;2.40;;;12.30;52.30;;;7.33;100.00;101000.19;5011770;28;66545;-62
2021/04/04 09:18:35;;;;;;;2.47;2.20;;;12.50;52.10;;;7.71;100.00;101004.31;5032544;28;66505;-61
2021/04/04 09:21:53;;;;;;;3.47;2.37;;;12.60;51.10;;;7.37;100.00;100996.34;5014482;28;61005;-61
2021/04/04 09:25:14;;;;;;;3.30;1.93;;;12.80;50.70;;;8.55;100.00;100993.81;5024585;28;61323;-61
2021/04/04 09:28:28;;;;;;;3.93;1.90;;;13.00;50.20;;;8.73;100.00;100987.94;5026168;28;59012;-60
2021/04/04 09:31:45;;;;;;;1.93;1.70;;;13.20;48.60;;;7.42;100.00;100993.31;5029404;28;54856;-59
2021/04/04 09:34:57;;;;;;;2.60;2.30;;;13.50;47.40;;;7.83;100.00;100987.34;5031488;28;56009;-62
2021/04/04 09:38:11;;;;;;;3.50;2.30;;;13.50;47.40;;;8.68;100.00;100982.97;5029750;28;50202;-61
2021/04/04 09:41:22;;;;;;;3.67;1.70;;;13.50;48.10;;;9.17;100.00;100979.66;5030079;28;53914;-61
2021/04/04 09:44:37;;;;;;;2.67;1.47;;;13.70;47.60;;;7.86;100.00;100987.97;5034548;28;52747;-64
2021/04/04 09:48:01;;;;;;;2.50;2.00;;;13.90;44.90;;;7.88;100.00;100978.03;5025368;28;48881;-61
2021/04/04 09:51:27;;;;;;;3.77;2.40;;;14.00;44.50;;;7.93;100.00;100981.16;5035426;28;55301;-62
2021/04/04 09:54:38;;;;;;;3.47;2.10;;;14.00;44.30;;;8.55;100.00;100974.31;5029128;28;54549;-61
2021/04/04 09:57:56;;;;;;;3.40;2.70;;;14.20;44.80;;;8.35;100.00;100967.97;5024210;28;50356;-61
2021/04/04 10:01:09;;;;;;;2.97;2.40;;;14.50;44.50;;;8.94;100.00;100962.09;5026471;28;56159;-62
2021/04/04 10:04:38;;;;;;;2.87;2.33;;;14.70;44.00;;;8.85;100.00;100953.06;5027145;28;48083;-61
2021/04/04 10:07:54;;;;;;;4.20;2.40;;;15.00;43.80;;;8.40;100.00;100963.13;5000114;28;58694;-62
2021/04/04 10:11:07;;;;;;;2.43;2.20;;;15.00;42.80;;;8.13;100.00;100947.56;5023396;28;59623;-61
2021/04/04 10:14:24;;;;;;;3.13;2.20;;;14.80;42.60;;;8.50;100.00;100950.72;5026233;28;60498;-62
2021/04/04 10:18:00;;;;;;;4.00;2.33;;;14.60;42.50;;;8.27;100.00;100949.09;5034848;27;58040;-61
2021/04/04 10:21:13;;;;;;;3.27;2.20;;;14.80;42.80;;;9.65;100.00;100938.94;5038324;28;52462;-60
2021/04/04 10:28:25;;;;;;;4.70;2.53;;;15.70;42.80;;;8.41;100.00;100935.47;4933432;28;54995;-60
2021/04/04 10:31:53;;;;;;;2.90;1.90;;;15.90;40.90;;;8.71;100.00;100926.69;5034260;28;53286;-62
2021/04/04 10:35:11;;;;;;;2.57;2.10;;;15.60;40.20;;;8.44;100.00;100927.22;5035124;28;51572;-62
2021/04/04 10:38:43;;;;;;;2.93;1.97;;;15.10;40.90;;;8.30;100.00;100924.81;5026865;28;56006;-62
2021/04/04 10:42:09;;;;;;;4.40;1.93;;;14.80;40.50;;;8.49;100.00;100913.50;5011204;28;53874;-62
2021/04/04 10:45:38;;;;;;;2.73;1.80;;;14.50;41.20;;;8.89;100.00;100908.28;5032787;28;55789;-61
2021/04/04 10:48:51;;;;;;;3.43;1.87;;;14.50;41.50;;;9.51;100.00;100901.94;5024492;28;49950;-62
2021/04/04 10:52:04;;;;;;;3.70;1.90;;;14.60;42.20;;;9.15;100.00;100898.81;5031291;28;52392;-62
2021/04/04 10:55:17;;;;;;;2.47;1.93;;;15.00;41.10;;;8.73;100.00;100900.75;5029092;28;68354;-62
2021/04/04 10:58:53;;;;;;;4.43;1.80;;;15.10;40.60;;;9.76;100.00;100888.06;5029318;28;57074;-62
2021/04/04 11:02:04;;;;;;;3.20;2.03;;;15.50;41.20;;;9.19;100.00;100884.25;5024761;28;58844;-60
2021/04/04 11:05:16;;;;;;;2.78;1.75;;;16.00;39.60;;;8.64;100.00;100880.19;5033107;28;51186;-62
2021/04/04 11:08:29;;;;;;;1.90;1.73;;;15.90;37.70;;;9.54;100.00;100874.91;5027883;28;52803;-62
2021/04/04 11:11:42;;;;;;;3.67;2.00;;;15.80;39.50;;;10.72;100.00;100871.16;5022897;28;58655;-62
2021/04/04 11:15:06;;;;;;;3.38;1.80;;;16.20;40.40;;;9.80;100.00;100869.91;5026554;28;47047;-62
2021/04/04 11:18:19;;;;;;;3.15;1.90;;;16.90;39.80;;;10.93;100.00;100863.75;5032349;28;49539;-62
2021/04/04 11:21:38;;;;;;;3.28;1.67;;;17.50;39.10;;;11.32;100.00;100861.75;5028478;28;40519;-61
2021/04/04 11:24:50;;;;;;;1.73;1.50;;;18.10;38.50;;;11.17;100.00;100863.22;5039379;28;50849;-62
2021/04/04 11:28:31;;;;;;;2.53;1.42;;;18.70;37.30;;;9.68;100.00;100853.16;5038090;28;42336;-61
2021/04/04 11:31:53;;;;;;;4.60;1.75;;;19.10;35.70;;;11.42;100.00;100856.34;5046880;28;43883;-63
2021/04/04 11:35:11;;;;;;;2.08;1.60;;;19.40;35.60;;;12.13;100.00;100843.84;5034205;28;31499;-63
2021/04/04 11:38:39;;;;;;;3.97;1.88;;;19.90;35.40;;;11.22;100.00;100846.72;5058708;28;22969;-63
2021/04/04 11:42:03;;;;;;;1.95;1.55;;;20.40;34.80;;;12.17;100.00;100839.88;5056926;28;25782;-62
2021/04/04 11:45:20;;;;;;;2.03;1.50;;;20.70;34.80;;;12.12;93.29;100828.75;5056955;28;20641;-62
2021/04/04 11:49:01;;;;;;;3.40;1.92;;;21.10;34.00;;;11.02;93.82;100824.53;5059531;28;29061;-62
2021/04/04 11:52:32;;;;;;;2.75;1.63;;;21.20;32.00;;;11.23;99.43;100825.16;4973572;28;42169;-60
2021/04/04 11:56:04;;;;;;;2.25;1.80;;;20.80;32.30;;;11.05;93.48;100816.22;5000670;28;25359;-63
2021/04/04 11:59:16;;;;;;;3.20;1.85;;;20.70;32.90;;;10.83;100.00;100817.44;5044753;28;31614;-62
2021/04/04 12:02:34;;;;;;;3.10;1.83;;;20.30;31.60;;;10.64;100.00;100812.97;5046329;28;36177;-61
2021/04/04 12:05:50;;;;;;;3.70;2.00;;;19.80;32.40;;;9.65;100.00;100814.19;5037753;28;36674;-61
2021/04/04 12:09:10;;;;;;;3.72;1.73;;;19.40;32.90;;;10.30;100.00;100809.97;5046339;28;33392;-62
2021/04/04 12:15:43;;;;;;;5.57;2.00;;;19.00;34.30;;;10.23;100.00;100797.34;5049409;28;40582;-62
2021/04/04 12:29:36;;;;;;;6.07;2.72;;;16.70;37.40;;;10.02;100.00;100768.88;5040924;28;39607;-62
2021/04/04 12:32:49;;;;;;;6.60;3.22;;;16.60;37.60;;;9.67;100.00;100764.13;5056673;28;41040;-62
2021/04/04 12:36:02;;;;;;;5.85;3.05;;;16.40;37.90;;;9.93;100.00;100759.06;5043574;28;50700;-62
2021/04/04 12:46:26;;;;;;;6.95;4.05;;;15.60;39.30;;;10.87;100.00;100749.25;5042462;28;31919;-62
2021/04/04 12:49:47;;;;;;;8.02;3.75;;;15.70;40.50;;;10.53;100.00;100732.03;5043628;28;43076;-62
2021/04/04 12:53:08;;;;;;;6.80;3.80;;;16.10;40.20;;;10.24;100.00;100727.66;5048177;28;33969;-61
2021/04/04 12:56:19;;;;;;;8.52;4.20;;;16.30;39.40;;;9.93;100.00;100726.13;5046015;28;38209;-62
2021/04/04 12:59:33;;;;;;;6.47;4.40;;;16.20;39.40;;;10.62;100.00;100721.31;5054844;28;36963;-63
2021/04/04 13:02:45;;;;;;;5.65;3.67;;;16.10;40.40;;;10.59;100.00;100721.63;5050992;28;48495;-62
2021/04/04 13:06:01;;;;;;;6.65;4.18;;;16.20;40.20;;;10.23;100.00;100712.59;5040594;28;38269;-62
2021/04/04 13:12:30;;;;;;;7.22;3.92;;;16.10;39.60;;;9.93;100.00;100704.75;5041820;28;36665;-63
2021/04/04 13:19:47;;;;;;;4.90;3.15;;;15.80;40.80;;;9.74;100.00;100702.97;4935591;28;50645;-61
2021/04/04 13:23:07;;;;;;;7.28;3.80;;;15.70;40.50;;;9.58;100.00;100692.84;5041965;28;47405;-61
2021/04/04 13:26:22;;;;;;;7.88;4.50;;;15.30;41.70;;;9.12;100.00;100688.22;5018778;28;52948;-62
2021/04/04 13:29:35;;;;;;;9.83;3.80;;;14.80;41.60;;;9.18;100.00;100686.78;5027079;28;55089;-62
2021/04/04 13:33:03;;;;;;;8.83;4.70;;;14.30;42.70;;;9.25;100.00;100677.25;5031289;28;58308;-60
2021/04/04 13:36:27;;;;;;;6.47;4.07;;;14.00;43.60;;;9.73;100.00;100664.72;5035094;28;55405;-62
2021/04/04 13:43:30;;;;;;;11.33;4.80;;;14.10;44.30;;;10.22;100.00;100654.75;5030276;28;55850;-63
2021/04/04 13:47:12;;;;;;;8.87;4.73;;;14.40;44.40;;;10.64;100.00;100663.13;5031852;28;50254;-61
2021/04/04 13:50:30;;;;;;;9.13;5.10;;;14.70;44.30;;;9.90;100.00;100652.41;5012836;28;48913;-61
2021/04/04 13:53:44;;;;;;;8.53;4.80;;;14.90;43.70;;;9.43;100.00;100651.53;5027522;27;43600;-62
2021/04/04 13:57:10;;;;;;;11.90;4.90;;;14.80;43.50;;;9.44;100.00;100649.69;5042571;28;47630;-62